Accueil
METAR-TAF:

METAR-TAF

Aéroports :

Friedrichshafen, Allemagne

Aéroport de Friedrichshafen

latitude: 47-40N, longitude: 009-31E, altitude: 416 m

Observation

Le bulletin a été fait il y a 25 minutes, à 21:20 UTC
Vent 6 kt de nord/nord-est, variant entre nord/nord-ouest et est/nord-est
Température 6°C
Humidité 56%
Pression 1022 hPa
Visibilité 10 km ou plus

METAR: EDNY 232120Z AUTO 03006KT 340V060 9999 06/M02 Q1022

Heure: 23:45 (21:45 UTC)

Prévision

Le bulletin a été fait il y a 4 heures et 45 minutes, à 17:00 UTC
Prévision valable du 23 à 18 UTC au 24 à 18 UTC
Vent 4 kt de nord/nord-est
Visibilité 10 km ou plus
pas de nuages en-dessous de 1500 mètres et pas de cumulonimbus.
Evoluant progressivement
du 24 à 09 UTC au 24 à 11 UTC
Vent 6 kt de ouest/sud-ouest

TAF: EDNY 231700Z 2318/2418 03004KT CAVOK BECMG 2409/2411 24006KT

Observations et prévisions météorologiques de plus de 4000 aéroports (messages METAR et TAF).

Les stations disponibles sont représentées par des disques jaunes et rouges sur la carte.

Passer la souris dessus pour voir le nom de la station.

Cliquer dessus pour voir les observations et prévisions météorologiques.

Pour changer de carte: cliquez sur les boutons verts avec une croix noire pour zoomer, sur le bouton vert avec un tiret pour effectuer un zoom arrière, ou sur les flèches vertes pour les cartes adjacentes.


METAR-TAF: